createdAt,value
2023-05-06T00:00:44.259Z,15.50
2023-05-06T00:03:10.925Z,15.40
2023-05-06T00:05:39.505Z,15.40
2023-05-06T00:08:09.179Z,15.40
2023-05-06T00:10:35.754Z,15.30
2023-05-06T00:13:08.474Z,15.30
2023-05-06T00:15:37.304Z,15.30
2023-05-06T00:18:06.361Z,15.20
2023-05-06T00:20:35.474Z,15.20
2023-05-06T00:23:04.546Z,15.20
2023-05-06T00:25:31.095Z,15.10
2023-05-06T00:28:00.298Z,15.10
2023-05-06T00:30:28.239Z,15.10
2023-05-06T00:33:00.591Z,15.00
2023-05-06T00:35:27.186Z,15.00
2023-05-06T00:37:58.500Z,15.00
2023-05-06T00:40:31.881Z,14.90
2023-05-06T00:43:07.033Z,14.90
2023-05-06T00:45:36.155Z,14.80
2023-05-06T00:48:04.372Z,14.70
2023-05-06T00:50:34.375Z,14.70
2023-05-06T00:53:07.467Z,14.60
2023-05-06T00:55:40.518Z,14.70
2023-05-06T00:58:07.673Z,14.50
2023-05-06T01:00:36.566Z,14.50
2023-05-06T01:03:03.445Z,14.40
2023-05-06T01:05:35.788Z,14.40
2023-05-06T01:08:12.877Z,14.30
2023-05-06T01:10:53.870Z,14.30
2023-05-06T01:13:46.710Z,14.20
2023-05-06T01:16:15.812Z,14.20
2023-05-06T01:18:46.330Z,14.10
2023-05-06T01:21:17.559Z,14.10
2023-05-06T01:23:57.189Z,14.00
2023-05-06T01:26:24.434Z,14.00
2023-05-06T01:28:53.860Z,13.90
2023-05-06T01:31:26.830Z,13.90
2023-05-06T01:34:07.134Z,13.80
2023-05-06T01:36:54.487Z,13.80
2023-05-06T01:39:26.972Z,13.70
2023-05-06T01:41:57.216Z,13.60
2023-05-06T01:44:32.285Z,13.60
2023-05-06T01:47:00.179Z,13.50
2023-05-06T01:49:33.841Z,13.50
2023-05-06T01:52:05.381Z,13.50
2023-05-06T01:54:34.460Z,13.50
2023-05-06T01:57:03.884Z,13.40
2023-05-06T01:59:32.769Z,13.40
2023-05-06T02:01:59.543Z,13.40
2023-05-06T02:04:26.305Z,13.30
2023-05-06T02:06:53.053Z,13.30
2023-05-06T02:09:22.068Z,13.20
2023-05-06T02:11:58.520Z,13.30
2023-05-06T02:14:26.120Z,13.20
2023-05-06T02:17:07.305Z,13.20
2023-05-06T02:19:34.566Z,13.20
2023-05-06T02:22:03.236Z,13.10
2023-05-06T02:24:31.920Z,13.10
2023-05-06T02:27:08.758Z,13.00
2023-05-06T02:29:36.090Z,13.10
2023-05-06T02:32:02.841Z,13.00
2023-05-06T02:34:31.626Z,13.00
2023-05-06T02:36:58.202Z,13.00
2023-05-06T02:39:24.832Z,12.90
2023-05-06T02:41:51.454Z,12.90
2023-05-06T02:44:21.809Z,12.90
2023-05-06T02:46:48.479Z,12.90
2023-05-06T02:49:18.184Z,12.90
2023-05-06T02:51:51.043Z,12.90
2023-05-06T02:54:20.625Z,12.80
2023-05-06T02:56:49.538Z,12.90
2023-05-06T02:59:16.713Z,12.80
2023-05-06T03:01:43.321Z,12.80
2023-05-06T03:04:09.974Z,12.80
2023-05-06T03:06:38.794Z,12.80
2023-05-06T03:09:16.009Z,12.70
2023-05-06T03:11:48.022Z,12.70
2023-05-06T03:14:18.053Z,12.70
2023-05-06T03:16:45.192Z,12.70
2023-05-06T03:19:15.190Z,12.70
2023-05-06T03:21:47.133Z,12.70
2023-05-06T03:24:14.842Z,12.60
2023-05-06T03:26:43.666Z,12.60
2023-05-06T03:29:15.956Z,12.60
2023-05-06T03:31:44.689Z,12.60
2023-05-06T03:34:12.046Z,12.60
2023-05-06T03:36:43.356Z,12.50
2023-05-06T03:39:12.321Z,12.50
2023-05-06T03:41:44.218Z,12.50
2023-05-06T03:44:13.145Z,12.50
2023-05-06T03:46:41.535Z,12.40
2023-05-06T03:49:11.723Z,12.40
2023-05-06T03:51:44.763Z,12.40
2023-05-06T03:54:14.384Z,12.30
2023-05-06T03:56:40.996Z,12.30
2023-05-06T03:59:10.202Z,12.30
2023-05-06T04:01:36.880Z,12.30
2023-05-06T04:04:08.663Z,12.30
2023-05-06T04:06:37.550Z,12.20
2023-05-06T04:09:06.467Z,12.20
2023-05-06T04:11:39.614Z,12.20
2023-05-06T04:14:10.405Z,12.20
2023-05-06T04:16:38.648Z,12.20
2023-05-06T04:19:08.163Z,12.20
2023-05-06T04:21:38.504Z,12.20
2023-05-06T04:24:11.484Z,12.10
2023-05-06T04:26:43.143Z,12.10
2023-05-06T04:29:15.174Z,12.10
2023-05-06T04:31:55.069Z,12.10
2023-05-06T04:34:26.081Z,12.10
2023-05-06T04:36:55.430Z,12.10
2023-05-06T04:39:43.484Z,12.10
2023-05-06T04:42:11.296Z,12.10
2023-05-06T04:44:49.595Z,12.10
2023-05-06T04:47:24.666Z,12.20
2023-05-06T04:49:52.707Z,12.10
2023-05-06T04:52:20.945Z,12.20
2023-05-06T04:54:49.232Z,12.20
2023-05-06T04:57:16.494Z,12.20
2023-05-06T04:59:49.692Z,12.20
2023-05-06T05:02:16.772Z,12.30
2023-05-06T05:04:53.468Z,12.30
2023-05-06T05:07:23.001Z,12.30
2023-05-06T05:09:50.141Z,12.40
2023-05-06T05:12:19.668Z,12.40
2023-05-06T05:14:49.705Z,12.50
2023-05-06T05:17:18.762Z,12.50
2023-05-06T05:19:50.125Z,12.50
2023-05-06T05:22:17.183Z,12.60
2023-05-06T05:24:51.452Z,12.60
2023-05-06T05:27:23.472Z,12.60
2023-05-06T05:29:51.057Z,12.70
2023-05-06T05:32:20.015Z,12.70
2023-05-06T05:34:49.099Z,12.80
2023-05-06T05:37:15.899Z,12.80
2023-05-06T05:39:43.582Z,12.90
2023-05-06T05:42:13.740Z,12.90
2023-05-06T05:44:44.982Z,12.90
2023-05-06T05:47:16.140Z,13.00
2023-05-06T05:49:45.186Z,13.10
2023-05-06T05:52:19.875Z,13.10
2023-05-06T05:54:49.674Z,13.20
2023-05-06T05:57:17.636Z,13.20
2023-05-06T05:59:44.212Z,13.30
2023-05-06T06:02:11.690Z,13.30
2023-05-06T06:04:41.453Z,13.40
2023-05-06T06:07:17.354Z,13.50
2023-05-06T06:09:47.920Z,13.60
2023-05-06T06:12:15.689Z,13.60
2023-05-06T06:14:47.913Z,13.70
2023-05-06T06:17:21.410Z,13.80
2023-05-06T06:19:51.075Z,13.90
2023-05-06T06:22:17.921Z,14.00
2023-05-06T06:24:47.134Z,14.10
2023-05-06T06:27:13.707Z,14.20
2023-05-06T06:29:42.818Z,14.30
2023-05-06T06:32:11.208Z,14.40
2023-05-06T06:34:37.881Z,14.50
2023-05-06T06:37:11.440Z,14.60
2023-05-06T06:39:39.424Z,14.70
2023-05-06T06:42:10.848Z,14.80
2023-05-06T06:44:51.752Z,14.90
2023-05-06T06:47:18.546Z,15.00
2023-05-06T06:49:45.113Z,15.10
2023-05-06T06:52:11.843Z,15.20
2023-05-06T06:54:41.106Z,15.30
2023-05-06T06:57:07.721Z,15.30
2023-05-06T06:59:34.855Z,15.40
2023-05-06T07:02:02.411Z,15.50
2023-05-06T07:04:31.654Z,15.60
2023-05-06T07:06:58.263Z,15.70
2023-05-06T07:09:24.934Z,15.80
2023-05-06T07:11:51.578Z,15.80
2023-05-06T07:14:18.142Z,15.90
2023-05-06T07:16:46.376Z,16.00
2023-05-06T07:19:13.729Z,16.00
2023-05-06T07:21:40.316Z,16.20
2023-05-06T07:24:07.371Z,16.20
2023-05-06T07:26:37.659Z,16.30
2023-05-06T07:29:04.500Z,16.40
2023-05-06T07:31:34.189Z,16.40
2023-05-06T07:34:00.917Z,16.50
2023-05-06T07:36:30.332Z,16.50
2023-05-06T07:38:57.121Z,16.60
2023-05-06T07:41:23.696Z,16.60
2023-05-06T07:43:50.259Z,16.70
2023-05-06T07:46:17.019Z,16.70
2023-05-06T07:48:43.653Z,16.80
2023-05-06T07:51:11.733Z,16.80
2023-05-06T07:53:41.193Z,16.90
2023-05-06T07:56:07.779Z,17.00
2023-05-06T07:58:34.825Z,17.00
2023-05-06T08:01:04.318Z,17.00
2023-05-06T08:03:31.478Z,17.10
2023-05-06T08:05:58.517Z,17.20
2023-05-06T08:08:27.962Z,17.20
2023-05-06T08:10:55.722Z,17.30
2023-05-06T08:13:22.502Z,17.40
2023-05-06T08:15:49.392Z,17.50
2023-05-06T08:18:22.344Z,17.60
2023-05-06T08:20:50.920Z,17.60
2023-05-06T08:23:17.523Z,17.70
2023-05-06T08:25:44.167Z,17.80
2023-05-06T08:28:13.375Z,17.90
2023-05-06T08:30:40.071Z,18.00
2023-05-06T08:33:06.795Z,18.00
2023-05-06T08:35:36.326Z,18.10
2023-05-06T08:38:02.875Z,18.20
2023-05-06T08:40:32.453Z,18.30
2023-05-06T08:43:03.897Z,18.30
2023-05-06T08:45:30.679Z,18.40
2023-05-06T08:47:57.341Z,18.40
2023-05-06T08:50:25.362Z,18.50
2023-05-06T08:52:52.172Z,18.50
2023-05-06T08:55:19.521Z,18.50
2023-05-06T08:57:46.826Z,18.60
2023-05-06T09:00:14.952Z,18.60
2023-05-06T09:02:43.474Z,18.60
2023-05-06T09:05:11.795Z,18.70
2023-05-06T09:07:39.695Z,18.70
2023-05-06T09:10:13.558Z,18.80
2023-05-06T09:12:40.394Z,18.80
2023-05-06T09:15:09.146Z,18.80
2023-05-06T09:17:36.513Z,18.90
2023-05-06T09:20:03.582Z,18.90
2023-05-06T09:22:31.120Z,19.00
2023-05-06T09:24:58.339Z,19.10
2023-05-06T09:27:27.887Z,19.20
2023-05-06T09:30:11.978Z,19.40
2023-05-06T09:32:40.400Z,19.50
2023-05-06T09:35:09.012Z,19.60
2023-05-06T09:37:36.187Z,19.70
2023-05-06T09:40:02.902Z,19.80
2023-05-06T09:42:30.249Z,19.90
2023-05-06T09:45:07.425Z,20.00
2023-05-06T09:47:35.565Z,20.20
2023-05-06T09:50:03.449Z,20.30
2023-05-06T09:52:31.226Z,20.40
2023-05-06T09:54:59.152Z,20.50
2023-05-06T09:57:26.683Z,20.50
2023-05-06T09:59:55.653Z,20.60
2023-05-06T10:02:23.686Z,20.70
2023-05-06T10:04:52.275Z,20.70
2023-05-06T10:07:22.673Z,20.80
2023-05-06T10:09:51.244Z,20.90
2023-05-06T10:12:19.828Z,20.90
2023-05-06T10:14:47.079Z,20.90
2023-05-06T10:17:13.922Z,21.00
2023-05-06T10:19:44.695Z,21.00
2023-05-06T10:22:45.706Z,21.10
2023-05-06T10:25:29.836Z,21.20
2023-05-06T10:27:56.763Z,21.20
2023-05-06T10:30:24.736Z,21.30
2023-05-06T10:32:56.275Z,21.40
2023-05-06T10:35:31.611Z,21.50
2023-05-06T10:37:59.779Z,21.60
2023-05-06T10:40:26.382Z,21.80
2023-05-06T10:42:52.960Z,21.90
2023-05-06T10:45:19.681Z,22.00
2023-05-06T10:47:58.306Z,22.20
2023-05-06T10:50:27.021Z,22.40
2023-05-06T10:53:01.605Z,22.60
2023-05-06T10:55:36.323Z,22.70
2023-05-06T10:58:18.581Z,22.90
2023-05-06T11:00:57.968Z,23.00
2023-05-06T11:03:24.828Z,23.20
2023-05-06T11:05:52.118Z,23.30
2023-05-06T11:08:26.329Z,23.40
2023-05-06T11:10:54.137Z,23.60
2023-05-06T11:13:28.321Z,23.70
2023-05-06T11:15:56.360Z,23.80
2023-05-06T11:18:32.018Z,23.80
2023-05-06T11:21:00.706Z,23.90
2023-05-06T11:23:42.992Z,24.00
2023-05-06T11:26:10.283Z,24.10
2023-05-06T11:28:37.386Z,24.20
2023-05-06T11:31:04.394Z,24.20
2023-05-06T11:33:36.162Z,24.20
2023-05-06T11:36:04.474Z,24.30
2023-05-06T11:38:54.117Z,24.30
2023-05-06T11:41:22.630Z,24.30
2023-05-06T11:43:50.941Z,24.40
2023-05-06T11:46:19.521Z,24.50
2023-05-06T11:48:46.519Z,24.50
2023-05-06T11:51:13.077Z,24.60
2023-05-06T11:53:39.722Z,24.60
2023-05-06T11:56:07.163Z,24.70
2023-05-06T11:58:33.842Z,24.70
2023-05-06T12:01:03.010Z,24.70
2023-05-06T12:03:31.714Z,24.70
2023-05-06T12:05:59.050Z,24.70
2023-05-06T12:08:28.708Z,24.70
2023-05-06T12:10:59.105Z,24.60
2023-05-06T12:13:27.422Z,24.60
2023-05-06T12:15:55.303Z,24.60
2023-05-06T12:18:23.185Z,24.60
2023-05-06T12:20:49.941Z,24.60
2023-05-06T12:23:19.853Z,24.60
2023-05-06T12:25:46.448Z,24.60
2023-05-06T12:28:17.234Z,24.70
2023-05-06T12:30:44.873Z,24.70
2023-05-06T12:33:12.258Z,24.70
2023-05-06T12:35:39.998Z,24.80
2023-05-06T12:38:17.558Z,24.90
2023-05-06T12:40:53.961Z,25.00
2023-05-06T12:43:29.146Z,25.10
2023-05-06T12:46:08.716Z,25.20
2023-05-06T12:48:35.725Z,25.30
2023-05-06T12:51:18.935Z,25.40
2023-05-06T12:53:45.702Z,25.60
2023-05-06T12:56:12.269Z,25.70
2023-05-06T12:58:39.612Z,25.80
2023-05-06T13:01:09.346Z,25.90
2023-05-06T13:03:38.596Z,26.10
2023-05-06T13:06:05.716Z,26.20
2023-05-06T13:08:32.402Z,26.30
2023-05-06T13:11:01.457Z,26.50
2023-05-06T13:13:28.491Z,26.60
2023-05-06T13:15:55.652Z,26.70
2023-05-06T13:18:22.340Z,26.80
2023-05-06T13:20:49.080Z,26.80
2023-05-06T13:23:15.668Z,26.80
2023-05-06T13:26:00.365Z,26.70
2023-05-06T13:28:28.864Z,26.60
2023-05-06T13:30:55.436Z,26.60
2023-05-06T13:33:22.168Z,26.50
2023-05-06T13:35:48.758Z,26.30
2023-05-06T13:38:15.367Z,26.20
2023-05-06T13:40:42.062Z,26.10
2023-05-06T13:43:08.833Z,26.10
2023-05-06T13:45:35.459Z,25.90
2023-05-06T13:48:02.092Z,25.70
2023-05-06T13:50:28.656Z,25.60
2023-05-06T13:52:55.321Z,25.40
2023-05-06T13:55:21.961Z,25.30
2023-05-06T13:57:48.576Z,25.10
2023-05-06T14:00:15.616Z,25.00
2023-05-06T14:02:42.553Z,24.80
2023-05-06T14:05:09.748Z,24.70
2023-05-06T14:07:38.405Z,24.70
2023-05-06T14:10:07.789Z,24.50
2023-05-06T14:12:34.454Z,24.30
2023-05-06T14:15:04.004Z,24.10
2023-05-06T14:17:30.663Z,23.90
2023-05-06T14:19:57.250Z,23.70
2023-05-06T14:22:23.848Z,23.40
2023-05-06T14:24:50.611Z,23.20
2023-05-06T14:27:17.217Z,23.00
2023-05-06T14:29:45.967Z,22.80
2023-05-06T14:32:13.105Z,22.60
2023-05-06T14:34:40.040Z,22.40
2023-05-06T14:37:07.845Z,22.20
2023-05-06T14:39:34.468Z,22.00
2023-05-06T14:42:01.500Z,21.80
2023-05-06T14:44:28.142Z,21.70
2023-05-06T14:46:54.704Z,21.60
2023-05-06T14:49:21.369Z,21.50
2023-05-06T14:51:49.762Z,21.40
2023-05-06T14:54:17.285Z,21.30
2023-05-06T14:56:49.217Z,21.30
2023-05-06T14:59:17.871Z,21.20
2023-05-06T15:01:45.780Z,21.10
2023-05-06T15:04:12.390Z,21.10
2023-05-06T15:06:39.349Z,21.20
2023-05-06T15:09:06.123Z,21.00
2023-05-06T15:11:32.770Z,21.10
2023-05-06T15:13:59.324Z,21.00
2023-05-06T15:16:25.932Z,21.00
2023-05-06T15:18:52.557Z,21.10
2023-05-06T15:21:19.326Z,21.00
2023-05-06T15:23:47.544Z,21.20
2023-05-06T15:26:14.183Z,21.10
2023-05-06T15:28:43.002Z,21.10
2023-05-06T15:31:09.649Z,21.10
2023-05-06T15:33:36.282Z,21.20
2023-05-06T15:36:02.967Z,21.20
2023-05-06T15:38:57.147Z,21.20
2023-05-06T15:41:33.171Z,21.20
2023-05-06T15:44:03.086Z,21.30
2023-05-06T15:46:34.014Z,21.30
2023-05-06T15:51:30.716Z,21.30
2023-05-06T15:53:57.421Z,21.30
2023-05-06T15:56:24.380Z,21.30
2023-05-06T15:58:51.029Z,21.30
2023-05-06T16:01:22.137Z,21.20
2023-05-06T16:03:56.750Z,21.20
2023-05-06T16:06:23.608Z,21.20
2023-05-06T16:08:50.614Z,21.20
2023-05-06T16:11:17.188Z,21.20
2023-05-06T16:13:44.375Z,21.10
2023-05-06T16:16:10.960Z,21.10
2023-05-06T16:18:39.706Z,21.10
2023-05-06T16:21:07.440Z,21.00
2023-05-06T16:23:34.051Z,21.00
2023-05-06T16:26:00.987Z,21.00
2023-05-06T16:28:28.029Z,21.00
2023-05-06T16:30:55.710Z,21.00
2023-05-06T16:33:22.366Z,21.00
2023-05-06T16:35:49.007Z,20.90
2023-05-06T16:38:15.610Z,20.90
2023-05-06T16:40:47.281Z,20.90
2023-05-06T16:43:13.975Z,20.90
2023-05-06T16:45:45.024Z,20.90
2023-05-06T16:48:13.892Z,20.90
2023-05-06T16:50:41.497Z,20.90
2023-05-06T16:53:08.505Z,20.80
2023-05-06T16:55:35.448Z,20.80
2023-05-06T16:58:02.394Z,20.80
2023-05-06T17:00:29.801Z,20.80
2023-05-06T17:02:56.402Z,20.80
2023-05-06T17:05:23.130Z,20.80
2023-05-06T17:07:50.719Z,20.80
2023-05-06T17:10:18.654Z,20.80
2023-05-06T17:12:45.344Z,20.80
2023-05-06T17:15:12.076Z,20.80
2023-05-06T17:17:39.789Z,20.80
2023-05-06T17:20:07.236Z,20.80
2023-05-06T17:22:33.953Z,20.80
2023-05-06T17:25:00.676Z,20.70
2023-05-06T17:27:27.411Z,20.70
2023-05-06T17:29:54.057Z,20.70
2023-05-06T17:32:20.838Z,20.70
2023-05-06T17:34:47.406Z,20.60
2023-05-06T17:37:14.164Z,20.60
2023-05-06T17:39:40.825Z,20.60
2023-05-06T17:42:08.293Z,20.60
2023-05-06T17:44:35.691Z,20.60
2023-05-06T17:47:02.274Z,20.50
2023-05-06T17:49:28.929Z,20.60
2023-05-06T17:51:59.306Z,20.50
2023-05-06T17:54:26.908Z,20.50
2023-05-06T17:56:53.542Z,20.50
2023-05-06T17:59:21.230Z,20.40
2023-05-06T18:01:48.354Z,20.40
2023-05-06T18:04:15.226Z,20.40
2023-05-06T18:06:42.664Z,20.40
2023-05-06T18:09:10.216Z,20.40
2023-05-06T18:11:37.911Z,20.30
2023-05-06T18:14:05.442Z,20.30
2023-05-06T18:16:32.185Z,20.30
2023-05-06T18:19:02.313Z,20.30
2023-05-06T18:21:28.964Z,20.30
2023-05-06T18:24:01.976Z,20.20
2023-05-06T18:26:45.004Z,20.20
2023-05-06T18:29:12.444Z,20.20
2023-05-06T18:31:39.259Z,20.20
2023-05-06T18:34:06.134Z,20.20
2023-05-06T18:36:34.676Z,20.10
2023-05-06T18:39:01.275Z,20.10
2023-05-06T18:41:27.861Z,20.10
2023-05-06T18:43:54.466Z,20.10
2023-05-06T18:46:21.346Z,20.10
2023-05-06T18:48:48.097Z,20.00
2023-05-06T18:51:16.982Z,20.00
2023-05-06T18:53:44.908Z,20.00
2023-05-06T18:56:13.918Z,19.90
2023-05-06T18:58:40.851Z,19.90
2023-05-06T19:01:09.329Z,19.80
2023-05-06T19:03:37.264Z,19.80
2023-05-06T19:06:07.950Z,19.70
2023-05-06T19:08:35.260Z,19.70
2023-05-06T19:11:02.402Z,19.70
2023-05-06T19:13:29.627Z,19.70
2023-05-06T19:15:56.998Z,19.60
2023-05-06T19:18:26.538Z,19.60
2023-05-06T19:20:53.521Z,19.50
2023-05-06T19:23:21.457Z,19.50
2023-05-06T19:25:50.179Z,19.50
2023-05-06T19:28:16.807Z,19.40
2023-05-06T19:30:43.678Z,19.40
2023-05-06T19:33:10.825Z,19.40
2023-05-06T19:35:39.186Z,19.40
2023-05-06T19:38:09.288Z,19.30
2023-05-06T19:40:36.007Z,19.30
2023-05-06T19:43:05.961Z,19.30
2023-05-06T19:45:33.642Z,19.30
2023-05-06T19:48:01.225Z,19.30
2023-05-06T19:50:31.927Z,19.30
2023-05-06T19:52:58.713Z,19.30
2023-05-06T19:55:25.502Z,19.30
2023-05-06T19:57:55.743Z,19.20
2023-05-06T20:00:22.764Z,19.30
2023-05-06T20:02:49.441Z,19.20
2023-05-06T20:05:16.301Z,19.20
2023-05-06T20:07:43.444Z,19.20
2023-05-06T20:10:13.240Z,19.20
2023-05-06T20:12:40.957Z,19.10
2023-05-06T20:15:08.930Z,19.10
2023-05-06T20:17:35.808Z,19.10
2023-05-06T20:20:09.281Z,19.10
2023-05-06T20:22:43.088Z,19.10
2023-05-06T20:25:17.414Z,19.10
2023-05-06T20:27:49.857Z,19.10
2023-05-06T20:30:19.436Z,19.00
2023-05-06T20:32:46.457Z,19.00
2023-05-06T20:35:13.524Z,19.00
2023-05-06T20:37:41.116Z,18.90
2023-05-06T20:40:11.895Z,18.90
2023-05-06T20:42:38.503Z,18.90
2023-05-06T20:45:05.983Z,18.90
2023-05-06T20:47:35.725Z,18.90
2023-05-06T20:50:02.396Z,18.80
2023-05-06T20:52:28.989Z,18.80
2023-05-06T20:55:03.163Z,18.80
2023-05-06T20:57:29.770Z,18.80
2023-05-06T21:00:03.181Z,18.80
2023-05-06T21:02:34.318Z,18.80
2023-05-06T21:05:07.998Z,18.80
2023-05-06T21:07:34.894Z,18.80
2023-05-06T21:10:04.057Z,18.70
2023-05-06T21:12:32.744Z,18.70
2023-05-06T21:15:00.034Z,18.70
2023-05-06T21:17:29.639Z,18.70
2023-05-06T21:19:56.494Z,18.70
2023-05-06T21:22:27.829Z,18.70
2023-05-06T21:25:00.646Z,18.70
2023-05-06T21:27:32.637Z,18.60
2023-05-06T21:30:02.111Z,18.60
2023-05-06T21:32:33.644Z,18.60
2023-05-06T21:35:04.923Z,18.60
2023-05-06T21:37:33.325Z,18.60
2023-05-06T21:40:02.563Z,18.60
2023-05-06T21:42:29.783Z,18.60
2023-05-06T21:44:56.430Z,18.60
2023-05-06T21:47:25.616Z,18.60
2023-05-06T21:49:54.512Z,18.60
2023-05-06T21:52:23.141Z,18.60
2023-05-06T21:54:52.008Z,18.60
2023-05-06T21:57:21.082Z,18.60
2023-05-06T21:59:47.760Z,18.60
2023-05-06T22:02:17.124Z,18.70
2023-05-06T22:04:49.231Z,18.70
2023-05-06T22:07:16.323Z,18.70
2023-05-06T22:09:50.322Z,18.70
2023-05-06T22:12:21.439Z,18.70
2023-05-06T22:14:50.136Z,18.70
2023-05-06T22:17:16.695Z,18.70
2023-05-06T22:19:46.405Z,18.70
2023-05-06T22:22:15.709Z,18.70
2023-05-06T22:24:42.346Z,18.70
2023-05-06T22:27:08.980Z,18.70
2023-05-06T22:29:37.694Z,18.70
2023-05-06T22:32:12.584Z,18.70
2023-05-06T22:34:39.130Z,18.70
2023-05-06T22:37:12.096Z,18.70
2023-05-06T22:39:41.123Z,18.70
2023-05-06T22:42:12.424Z,18.70
2023-05-06T22:44:38.989Z,18.60
2023-05-06T22:47:17.533Z,18.60
2023-05-06T22:49:44.240Z,18.60
2023-05-06T22:52:10.904Z,18.50
2023-05-06T22:54:37.476Z,18.60
2023-05-06T22:57:06.438Z,18.50
2023-05-06T22:59:35.463Z,18.50
2023-05-06T23:02:03.212Z,18.50
2023-05-06T23:04:32.683Z,18.50
2023-05-06T23:06:59.605Z,18.50
2023-05-06T23:09:26.218Z,18.50
2023-05-06T23:11:52.819Z,18.50
2023-05-06T23:14:22.316Z,18.40
2023-05-06T23:16:51.908Z,18.40
2023-05-06T23:19:23.312Z,18.40
2023-05-06T23:21:56.324Z,18.40
2023-05-06T23:24:22.932Z,18.40
2023-05-06T23:26:50.756Z,18.40
2023-05-06T23:29:18.502Z,18.30
2023-05-06T23:31:45.429Z,18.30
2023-05-06T23:34:14.412Z,18.30
2023-05-06T23:36:51.112Z,18.30
2023-05-06T23:39:17.694Z,18.20
2023-05-06T23:41:44.361Z,18.20
2023-05-06T23:44:13.078Z,18.20
2023-05-06T23:46:39.649Z,18.10
2023-05-06T23:49:09.207Z,18.10
2023-05-06T23:51:35.820Z,18.00
2023-05-06T23:54:04.590Z,17.90
2023-05-06T23:56:31.179Z,17.90
2023-05-06T23:59:00.354Z,17.90
